Time;durP1;ratioP1;P1;durP2;ratioP2;P2;SDS_P1;SDS_P2;PMS_P1;PMS_P2;Temp;Humidity;BMP_temperature;BMP_pressure;BME280_temperature;BME280_humidity;BME280_pressure;Samples;Min_cycle;Max_cycle;Signal;HPM_P1;HPM_P2
2023/07/07 00:02:16;;;;;;;;;;;25.50;52.50;;;;;;5125694;27;43357;-80
2023/07/07 00:04:41;;;;;;;;;;;25.50;52.80;;;;;;5125557;27;43498;-80
2023/07/07 00:07:07;;;;;;;;;;;25.50;53.00;;;;;;5125852;27;42889;-80
2023/07/07 00:09:32;;;;;;;;;;;25.50;53.10;;;;;;5107035;27;44972;-82
2023/07/07 00:12:00;;;;;;;;;;;25.50;53.30;;;;;;5125666;27;43177;-82
2023/07/07 00:14:25;;;;;;;;;;;25.50;53.50;;;;;;5124945;27;43037;-81
2023/07/07 00:16:51;;;;;;;;;;;25.40;53.60;;;;;;5125471;27;42914;-82
2023/07/07 00:19:17;;;;;;;;;;;25.30;53.70;;;;;;5124263;27;43556;-82
2023/07/07 00:21:42;;;;;;;;;;;25.30;53.90;;;;;;5126015;27;43171;-81
2023/07/07 00:24:08;;;;;;;;;;;25.30;54.10;;;;;;5126143;27;43765;-82
2023/07/07 00:26:34;;;;;;;;;;;25.20;54.10;;;;;;5146697;27;42770;-82
2023/07/07 00:28:59;;;;;;;;;;;25.20;54.10;;;;;;5146273;27;43805;-82
2023/07/07 00:31:25;;;;;;;;;;;25.20;54.20;;;;;;5146467;27;42965;-82
2023/07/07 00:33:51;;;;;;;;;;;25.20;54.30;;;;;;5145711;27;43677;-79
2023/07/07 00:36:16;;;;;;;;;;;25.20;54.00;;;;;;5146377;27;42956;-79
2023/07/07 00:38:42;;;;;;;;;;;25.20;53.80;;;;;;5145917;27;42956;-79
2023/07/07 00:41:08;;;;;;;;;;;25.20;53.80;;;;;;5146773;27;42957;-79
2023/07/07 00:43:34;;;;;;;;;;;25.30;54.20;;;;;;5146080;27;43343;-81
2023/07/07 00:46:00;;;;;;;;;;;25.30;53.50;;;;;;5146717;27;43048;-80
2023/07/07 00:48:31;;;;;;;;;;;25.40;53.90;;;;;;5145888;27;43371;-79
2023/07/07 00:51:07;;;;;;;;;;;25.40;53.70;;;;;;5146263;27;42889;-81
2023/07/07 00:53:33;;;;;;;;;;;25.40;53.30;;;;;;5148863;27;42955;-79
2023/07/07 00:56:01;;;;;;;;;;;25.30;53.60;;;;;;5149872;27;43044;-79
2023/07/07 00:58:28;;;;;;;;;;;25.30;54.10;;;;;;5149014;27;42820;-80
2023/07/07 01:01:05;;;;;;;;;;;25.30;53.50;;;;;;5141567;27;43040;-82
2023/07/07 01:03:37;;;;;;;;;;;25.40;54.10;;;;;;5148465;27;43749;-79
2023/07/07 01:06:06;;;;;;;;;;;25.40;54.20;;;;;;5147991;27;43034;-80
2023/07/07 01:08:32;;;;;;;;;;;24.90;54.00;;;;;;5149166;27;43588;-80
2023/07/07 01:10:58;;;;;;;;;;;25.30;54.30;;;;;;5148554;27;42967;-79
2023/07/07 01:13:23;;;;;;;;;;;25.20;54.30;;;;;;5149508;27;43493;-80
2023/07/07 01:15:55;;;;;;;;;;;25.20;54.30;;;;;;5148667;27;42890;-81
2023/07/07 01:18:28;;;;;;;;;;;25.20;54.60;;;;;;5147932;27;43392;-82
2023/07/07 01:21:01;;;;;;;;;;;25.30;53.90;;;;;;5148428;27;43116;-82
2023/07/07 01:23:39;;;;;;;;;;;25.30;54.40;;;;;;5149069;27;43418;-80
2023/07/07 01:26:14;;;;;;;;;;;25.20;54.40;;;;;;5135340;27;42915;-81
2023/07/07 01:28:48;;;;;;;;;;;25.20;54.60;;;;;;5146748;27;43553;-81
2023/07/07 01:31:17;;;;;;;;;;;25.10;54.10;;;;;;5146779;27;43451;-81
2023/07/07 01:33:44;;;;;;;;;;;25.10;54.10;;;;;;5146625;27;43836;-79
2023/07/07 01:36:09;;;;;;;;;;;25.00;54.10;;;;;;5147792;27;43136;-78
2023/07/07 01:38:39;;;;;;;;;;;25.00;54.20;;;;;;5126857;27;43029;-79
2023/07/07 01:41:23;;;;;;;;;;;25.00;54.20;;;;;;5126272;27;43083;-82
2023/07/07 01:43:55;;;;;;;;;;;25.00;54.40;;;;;;5134860;27;43046;-82
2023/07/07 01:46:31;;;;;;;;;;;24.90;54.20;;;;;;5136949;27;42998;-81
2023/07/07 01:49:17;;;;;;;;;;;24.90;54.40;;;;;;5146399;27;43636;-80
2023/07/07 01:51:48;;;;;;;;;;;24.90;54.80;;;;;;5127218;27;42870;-82
2023/07/07 01:54:14;;;;;;;;;;;24.80;53.90;;;;;;5140856;27;43005;-82
2023/07/07 01:56:41;;;;;;;;;;;24.70;54.30;;;;;;5148588;27;43096;-79
2023/07/07 01:59:07;;;;;;;;;;;24.80;54.40;;;;;;5148012;27;43459;-82
2023/07/07 02:01:33;;;;;;;;;;;24.90;54.40;;;;;;5129972;27;42873;-81
2023/07/07 02:03:59;;;;;;;;;;;24.90;54.30;;;;;;5136422;27;42900;-81
2023/07/07 02:06:24;;;;;;;;;;;21.40;52.60;;;;;;5147903;27;43037;-82
2023/07/07 02:08:50;;;;;;;;;;;24.80;54.40;;;;;;5147071;27;43082;-82
2023/07/07 02:11:15;;;;;;;;;;;24.90;54.20;;;;;;5128168;27;43114;-81
2023/07/07 02:13:41;;;;;;;;;;;25.00;53.40;;;;;;5146923;27;43378;-82
2023/07/07 02:16:07;;;;;;;;;;;25.10;53.00;;;;;;5127365;27;42968;-82
2023/07/07 02:18:33;;;;;;;;;;;25.10;53.00;;;;;;5147134;27;43588;-81
2023/07/07 02:20:58;;;;;;;;;;;25.10;53.30;;;;;;5148210;27;42993;-79
2023/07/07 02:23:24;;;;;;;;;;;25.00;52.80;;;;;;5145952;27;43960;-82
2023/07/07 02:25:49;;;;;;;;;;;24.90;53.00;;;;;;5147588;27;43079;-79
2023/07/07 02:28:15;;;;;;;;;;;25.00;53.60;;;;;;5147291;27;43662;-79
2023/07/07 02:30:40;;;;;;;;;;;25.00;53.00;;;;;;5147152;27;42982;-81
2023/07/07 02:33:08;;;;;;;;;;;25.00;53.70;;;;;;5146045;27;42974;-83
2023/07/07 02:35:34;;;;;;;;;;;25.00;53.80;;;;;;5127484;27;42840;-82
2023/07/07 02:38:00;;;;;;;;;;;24.90;53.30;;;;;;5147142;27;43113;-82
2023/07/07 02:40:25;;;;;;;;;;;24.90;53.90;;;;;;5147745;27;42979;-80
2023/07/07 02:42:51;;;;;;;;;;;24.80;54.10;;;;;;5146859;27;43672;-80
2023/07/07 02:45:17;;;;;;;;;;;;;;;;;;5128094;27;42900;-82
2023/07/07 02:47:42;;;;;;;;;;;24.70;53.90;;;;;;5145968;27;43013;-80
2023/07/07 02:50:08;;;;;;;;;;;24.80;54.50;;;;;;5147442;27;43399;-82
2023/07/07 02:52:33;;;;;;;;;;;24.80;53.90;;;;;;5146201;27;42942;-82
2023/07/07 02:54:59;;;;;;;;;;;24.70;55.00;;;;;;5147257;27;42960;-79
2023/07/07 02:57:24;;;;;;;;;;;24.70;54.00;;;;;;5146516;27;43447;-82
2023/07/07 02:59:50;;;;;;;;;;;24.70;54.00;;;;;;5146886;27;43084;-79
2023/07/07 03:02:15;;;;;;;;;;;24.70;54.50;;;;;;5146010;27;43011;-82
2023/07/07 03:04:41;;;;;;;;;;;24.70;54.00;;;;;;5147588;27;42977;-82
2023/07/07 03:07:06;;;;;;;;;;;24.70;54.00;;;;;;5145840;27;44059;-79
2023/07/07 03:09:32;;;;;;;;;;;24.80;54.50;;;;;;5147032;27;42935;-82
2023/07/07 03:11:57;;;;;;;;;;;24.80;53.90;;;;;;5146125;27;42916;-82
2023/07/07 03:14:23;;;;;;;;;;;24.70;53.80;;;;;;5146171;27;43065;-82
2023/07/07 03:16:51;;;;;;;;;;;24.70;54.30;;;;;;5146092;27;43866;-80
2023/07/07 03:19:17;;;;;;;;;;;24.70;53.90;;;;;;5146746;27;42919;-82
2023/07/07 03:21:43;;;;;;;;;;;24.60;54.40;;;;;;5146251;27;43002;-82
2023/07/07 03:24:08;;;;;;;;;;;24.70;54.40;;;;;;5146757;27;43199;-81
2023/07/07 03:26:34;;;;;;;;;;;24.60;54.40;;;;;;5127777;27;43664;-81
2023/07/07 03:28:59;;;;;;;;;;;24.50;54.20;;;;;;5146218;27;42930;-82
2023/07/07 03:31:29;;;;;;;;;;;24.50;54.70;;;;;;5146166;27;43473;-81
2023/07/07 03:33:56;;;;;;;;;;;24.50;54.70;;;;;;5146254;27;43011;-81
2023/07/07 03:36:22;;;;;;;;;;;24.40;54.70;;;;;;5145213;27;44067;-81
2023/07/07 03:38:48;;;;;;;;;;;24.40;54.70;;;;;;5146065;27;43105;-81
2023/07/07 03:41:15;;;;;;;;;;;24.30;54.50;;;;;;5145337;27;42889;-80
2023/07/07 03:43:44;;;;;;;;;;;24.40;54.40;;;;;;5145319;27;43416;-82
2023/07/07 03:46:14;;;;;;;;;;;24.40;54.90;;;;;;5143207;27;42869;-79
2023/07/07 03:48:39;;;;;;;;;;;24.50;54.60;;;;;;5137756;27;43012;-81
2023/07/07 03:51:05;;;;;;;;;;;24.70;53.90;;;;;;5145665;27;43022;-80
2023/07/07 03:53:32;;;;;;;;;;;24.70;54.20;;;;;;5146476;27;42964;-81
2023/07/07 03:55:57;;;;;;;;;;;24.70;53.50;;;;;;5127194;27;43481;-82
2023/07/07 03:58:24;;;;;;;;;;;24.70;53.60;;;;;;5142469;27;42988;-82
2023/07/07 04:00:50;;;;;;;;;;;24.70;53.90;;;;;;5144473;27;43014;-81
2023/07/07 04:03:16;;;;;;;;;;;24.60;53.60;;;;;;5138830;27;42915;-82
2023/07/07 04:05:46;;;;;;;;;;;24.60;53.60;;;;;;5140931;27;43793;-83
2023/07/07 04:08:12;;;;;;;;;;;24.80;53.50;;;;;;5138195;27;42902;-87
2023/07/07 04:10:38;;;;;;;;;;;24.90;53.30;;;;;;5124314;27;45771;-88
2023/07/07 04:13:03;;;;;;;;;;;24.90;53.80;;;;;;5134091;27;43280;-86
2023/07/07 04:15:29;;;;;;;;;;;24.90;53.90;;;;;;5144070;27;42966;-83
2023/07/07 04:17:54;;;;;;;;;;;24.80;53.50;;;;;;5145817;27;42924;-84
2023/07/07 04:20:20;;;;;;;;;;;24.70;53.60;;;;;;5145927;27;43966;-86
2023/07/07 04:22:45;;;;;;;;;;;24.60;53.90;;;;;;5142506;27;43238;-80
2023/07/07 04:25:12;;;;;;;;;;;24.60;54.00;;;;;;5128411;27;43570;-80
2023/07/07 04:27:38;;;;;;;;;;;24.70;54.00;;;;;;5135670;27;43109;-78
2023/07/07 04:30:04;;;;;;;;;;;24.70;53.80;;;;;;5144377;27;43392;-79
2023/07/07 04:32:30;;;;;;;;;;;24.80;54.20;;;;;;5144964;27;42772;-79
2023/07/07 04:34:55;;;;;;;;;;;24.80;54.10;;;;;;5142379;27;43568;-79
2023/07/07 04:37:21;;;;;;;;;;;24.90;53.60;;;;;;5136565;27;43023;-80
2023/07/07 04:39:48;;;;;;;;;;;24.90;54.00;;;;;;5144007;27;43440;-82
2023/07/07 04:42:14;;;;;;;;;;;24.90;53.90;;;;;;5145235;27;42909;-82
2023/07/07 04:44:39;;;;;;;;;;;24.90;53.40;;;;;;5134893;27;43948;-81
2023/07/07 04:47:04;;;;;;;;;;;24.90;53.50;;;;;;5144784;27;43009;-81
2023/07/07 04:49:30;;;;;;;;;;;25.00;53.50;;;;;;5143446;27;43085;-81
2023/07/07 04:51:55;;;;;;;;;;;24.90;54.00;;;;;;5125016;27;43006;-87
2023/07/07 04:54:21;;;;;;;;;;;24.90;54.20;;;;;;5144288;27;43189;-87
2023/07/07 04:56:47;;;;;;;;;;;24.80;53.60;;;;;;5134483;27;43022;-86
2023/07/07 04:59:13;;;;;;;;;;;24.80;54.00;;;;;;5142588;27;43262;-87
2023/07/07 05:01:40;;;;;;;;;;;24.90;53.90;;;;;;5144901;27;43079;-81
2023/07/07 05:04:06;;;;;;;;;;;24.80;53.90;;;;;;5144620;27;43033;-85
2023/07/07 05:06:34;;;;;;;;;;;24.80;54.50;;;;;;5145117;27;42970;-87
2023/07/07 05:09:01;;;;;;;;;;;24.80;54.10;;;;;;5145162;27;43105;-88
2023/07/07 05:11:27;;;;;;;;;;;24.80;54.20;;;;;;5135078;27;42886;-85
2023/07/07 05:13:53;;;;;;;;;;;24.80;53.70;;;;;;5129044;27;44108;-87
2023/07/07 05:16:19;;;;;;;;;;;24.90;54.20;;;;;;5134246;27;43010;-84
2023/07/07 05:18:45;;;;;;;;;;;24.90;54.20;;;;;;5125647;27;43015;-87
2023/07/07 05:21:11;;;;;;;;;;;24.80;53.70;;;;;;5125559;27;42770;-82
2023/07/07 05:23:37;;;;;;;;;;;24.90;54.00;;;;;;5125479;27;43610;-82
2023/07/07 05:26:03;;;;;;;;;;;25.00;52.80;;;;;;5106114;27;42861;-83
2023/07/07 05:28:29;;;;;;;;;;;25.00;53.10;;;;;;5142761;27;42966;-84
2023/07/07 05:30:54;;;;;;;;;;;25.10;52.40;;;;;;5145710;27;42989;-80
2023/07/07 05:33:21;;;;;;;;;;;25.10;51.90;;;;;;5144857;27;42992;-84
2023/07/07 05:35:47;;;;;;;;;;;25.10;52.20;;;;;;5144978;27;43133;-83
2023/07/07 05:38:13;;;;;;;;;;;25.10;52.10;;;;;;5145389;27;43554;-86
2023/07/07 05:40:39;;;;;;;;;;;25.10;51.50;;;;;;5148700;27;43179;-81
2023/07/07 05:43:04;;;;;;;;;;;25.10;51.50;;;;;;5147896;27;43786;-79
2023/07/07 05:45:30;;;;;;;;;;;25.10;51.40;;;;;;5148958;27;43115;-86
2023/07/07 05:47:55;;;;;;;;;;;25.10;51.80;;;;;;5147871;27;42884;-88
2023/07/07 05:50:21;;;;;;;;;;;25.10;51.50;;;;;;5129802;27;43012;-79
2023/07/07 05:52:48;;;;;;;;;;;25.10;51.60;;;;;;5131223;27;43070;-79
2023/07/07 05:55:25;;;;;;;;;;;25.10;51.70;;;;;;5128560;27;42774;-79
2023/07/07 05:57:50;;;;;;;;;;;25.10;51.80;;;;;;5128217;27;43943;-78
2023/07/07 06:00:17;;;;;;;;;;;25.10;51.50;;;;;;5128402;27;42936;-86
2023/07/07 06:02:42;;;;;;;;;;;25.10;50.80;;;;;;5133459;27;43059;-80
2023/07/07 06:05:08;;;;;;;;;;;25.10;51.40;;;;;;5136387;27;42943;-79
2023/07/07 06:07:33;;;;;;;;;;;25.10;50.70;;;;;;5133591;27;42951;-81
2023/07/07 06:09:59;;;;;;;;;;;25.10;51.70;;;;;;5148316;27;42996;-86
2023/07/07 06:12:24;;;;;;;;;;;25.20;51.40;;;;;;5142967;27;43344;-79
2023/07/07 06:14:50;;;;;;;;;;;25.20;50.90;;;;;;5140566;27;42900;-87
2023/07/07 06:17:15;;;;;;;;;;;25.20;51.50;;;;;;5129054;27;44133;-82
2023/07/07 06:19:41;;;;;;;;;;;25.20;51.60;;;;;;5140183;27;42838;-87
2023/07/07 06:22:07;;;;;;;;;;;25.20;50.70;;;;;;5134469;27;42954;-84
2023/07/07 06:24:32;;;;;;;;;;;25.20;50.80;;;;;;5136307;27;43023;-81
2023/07/07 06:26:58;;;;;;;;;;;25.20;51.30;;;;;;5146148;27;43771;-87
2023/07/07 06:29:23;;;;;;;;;;;25.30;50.60;;;;;;5148269;27;42811;-87
2023/07/07 06:31:49;;;;;;;;;;;25.20;51.10;;;;;;5130108;27;42912;-81
2023/07/07 06:34:14;;;;;;;;;;;25.30;51.20;;;;;;5128384;27;42902;-79
2023/07/07 06:36:40;;;;;;;;;;;25.30;50.40;;;;;;5145856;27;42949;-83
2023/07/07 06:39:05;;;;;;;;;;;25.30;50.90;;;;;;5117930;27;43136;-78
2023/07/07 06:41:31;;;;;;;;;;;25.30;50.90;;;;;;5145901;27;43739;-87
2023/07/07 06:43:56;;;;;;;;;;;25.30;50.70;;;;;;5137200;27;42979;-78
2023/07/07 06:46:24;;;;;;;;;;;25.30;51.10;;;;;;5131306;27;43448;-78
2023/07/07 06:48:50;;;;;;;;;;;25.30;51.10;;;;;;5148300;27;42862;-79
2023/07/07 06:51:15;;;;;;;;;;;25.40;51.30;;;;;;5128374;27;42909;-78
2023/07/07 06:53:41;;;;;;;;;;;25.40;51.10;;;;;;5127826;27;42802;-78
2023/07/07 06:56:07;;;;;;;;;;;25.40;51.20;;;;;;5127425;27;42956;-78
2023/07/07 06:58:33;;;;;;;;;;;25.40;51.20;;;;;;5139021;27;42997;-78
2023/07/07 07:00:59;;;;;;;;;;;25.40;51.80;;;;;;5111056;27;44050;-81
2023/07/07 07:03:24;;;;;;;;;;;25.40;51.90;;;;;;5127404;27;42952;-78
2023/07/07 07:05:50;;;;;;;;;;;25.40;51.50;;;;;;5126839;27;43100;-86
2023/07/07 07:08:15;;;;;;;;;;;25.40;52.00;;;;;;5127181;27;42927;-83
2023/07/07 07:10:41;;;;;;;;;;;25.40;51.60;;;;;;5145238;27;42916;-81
2023/07/07 07:13:08;;;;;;;;;;;25.40;51.60;;;;;;5148260;27;42942;-79
2023/07/07 07:15:33;;;;;;;;;;;25.40;52.10;;;;;;5146721;27;43584;-87
2023/07/07 07:17:59;;;;;;;;;;;25.50;52.20;;;;;;5147336;27;42862;-78
2023/07/07 07:20:25;;;;;;;;;;;25.50;52.10;;;;;;5146176;27;43458;-79
2023/07/07 07:22:50;;;;;;;;;;;25.50;51.70;;;;;;5147182;27;43597;-84
2023/07/07 07:25:16;;;;;;;;;;;25.50;51.70;;;;;;5145852;27;42958;-78
2023/07/07 07:27:42;;;;;;;;;;;25.50;51.70;;;;;;5146764;27;42983;-78
2023/07/07 07:30:08;;;;;;;;;;;25.50;52.20;;;;;;5126770;27;44416;-86
2023/07/07 07:32:34;;;;;;;;;;;25.50;51.80;;;;;;5148158;27;43052;-78
2023/07/07 07:34:59;;;;;;;;;;;25.60;51.80;;;;;;5144743;27;43020;-82
2023/07/07 07:37:25;;;;;;;;;;;25.50;52.30;;;;;;5147149;27;43367;-82
2023/07/07 07:39:51;;;;;;;;;;;25.50;51.70;;;;;;5145605;27;43053;-80
2023/07/07 07:42:16;;;;;;;;;;;25.50;51.70;;;;;;5146748;27;42963;-86
2023/07/07 07:44:42;;;;;;;;;;;25.60;52.30;;;;;;5143731;27;43016;-83
2023/07/07 07:47:08;;;;;;;;;;;25.60;51.70;;;;;;5145209;27;43102;-79
2023/07/07 07:49:34;;;;;;;;;;;25.60;51.70;;;;;;5141450;27;43616;-85
2023/07/07 07:52:00;;;;;;;;;;;25.60;51.70;;;;;;5137816;27;42985;-88
2023/07/07 07:54:25;;;;;;;;;;;25.60;51.70;;;;;;5146221;27;43856;-78
2023/07/07 07:56:51;;;;;;;;;;;25.60;52.10;;;;;;5136100;27;42948;-84
2023/07/07 07:59:17;;;;;;;;;;;25.50;51.40;;;;;;5126079;27;43558;-80
2023/07/07 08:01:44;;;;;;;;;;;25.60;52.10;;;;;;5136291;27;42917;-84
2023/07/07 08:04:10;;;;;;;;;;;25.60;52.00;;;;;;5142277;27;44298;-87
2023/07/07 08:06:35;;;;;;;;;;;25.50;51.50;;;;;;5136895;27;43012;-83
2023/07/07 08:09:01;;;;;;;;;;;25.60;52.00;;;;;;5132825;27;44007;-80
2023/07/07 08:11:50;;;;;;;;;;;25.60;52.00;;;;;;5137471;27;42918;-85
2023/07/07 08:14:19;;;;;;;;;;;25.60;51.70;;;;;;5128133;27;43736;-79
2023/07/07 08:16:45;;;;;;;;;;;25.60;50.80;;;;;;5140281;27;42948;-79
2023/07/07 08:19:11;;;;;;;;;;;25.60;50.80;;;;;;5133625;27;42987;-81
2023/07/07 08:21:36;;;;;;;;;;;25.60;50.80;;;;;;5132971;27;42944;-79
2023/07/07 08:24:02;;;;;;;;;;;25.60;51.10;;;;;;5126898;27;43270;-87
2023/07/07 08:26:28;;;;;;;;;;;25.60;51.10;;;;;;5139436;27;43230;-87
2023/07/07 08:28:54;;;;;;;;;;;25.60;51.00;;;;;;5126445;27;43047;-85
2023/07/07 08:31:19;;;;;;;;;;;25.60;51.60;;;;;;5126284;27;42914;-78
2023/07/07 08:33:46;;;;;;;;;;;25.60;51.40;;;;;;5132748;27;43601;-80
2023/07/07 08:36:11;;;;;;;;;;;25.60;51.30;;;;;;5132990;27;42797;-86
2023/07/07 08:38:37;;;;;;;;;;;25.60;51.20;;;;;;5126527;27;42873;-81
2023/07/07 08:41:02;;;;;;;;;;;25.60;51.10;;;;;;5139794;27;42823;-79
2023/07/07 08:43:30;;;;;;;;;;;25.70;50.60;;;;;;5139821;27;43373;-77
2023/07/07 08:45:55;;;;;;;;;;;25.60;50.30;;;;;;5126868;27;42907;-84
2023/07/07 08:48:39;;;;;;;;;;;25.60;50.60;;;;;;5146016;27;44122;-78
2023/07/07 08:51:07;;;;;;;;;;;25.70;50.40;;;;;;5145640;27;42750;-86
2023/07/07 08:54:02;;;;;;;;;;;25.60;49.50;;;;;;5145643;27;44495;-79
2023/07/07 08:56:31;;;;;;;;;;;25.70;50.20;;;;;;5123290;27;42981;-79
2023/07/07 08:59:00;;;;;;;;;;;25.70;49.90;;;;;;5145004;27;43723;-85
2023/07/07 09:01:33;;;;;;;;;;;25.60;49.90;;;;;;5146033;27;43356;-79
2023/07/07 09:04:17;;;;;;;;;;;25.70;50.30;;;;;;5143431;27;43465;-87
2023/07/07 09:06:58;;;;;;;;;;;25.70;50.40;;;;;;5125649;27;43030;-78
2023/07/07 09:09:23;;;;;;;;;;;25.60;50.40;;;;;;5132434;27;43467;-79
2023/07/07 09:12:04;;;;;;;;;;;25.70;50.50;;;;;;5131597;27;43974;-78
2023/07/07 09:14:30;;;;;;;;;;;25.70;50.10;;;;;;5137691;27;43598;-78
2023/07/07 09:16:57;;;;;;;;;;;25.70;50.50;;;;;;5135588;27;43001;-78
2023/07/07 09:19:32;;;;;;;;;;;25.70;49.80;;;;;;5140164;27;43413;-78
2023/07/07 09:22:16;;;;;;;;;;;25.70;50.50;;;;;;5132732;27;43902;-80
2023/07/07 09:24:42;;;;;;;;;;;25.70;50.40;;;;;;5136148;27;42986;-87
2023/07/07 09:27:11;;;;;;;;;;;25.80;50.70;;;;;;5111341;27;42981;-86
2023/07/07 09:29:36;;;;;;;;;;;25.80;50.10;;;;;;5142362;27;42999;-78
2023/07/07 09:32:05;;;;;;;;;;;25.80;50.60;;;;;;5148965;27;42870;-78
2023/07/07 09:34:32;;;;;;;;;;;25.80;50.20;;;;;;5135217;27;43414;-81
2023/07/07 09:37:16;;;;;;;;;;;25.80;50.60;;;;;;5128975;27;42963;-80
2023/07/07 09:39:48;;;;;;;;;;;25.80;50.30;;;;;;5142739;27;43617;-80
2023/07/07 09:42:25;;;;;;;;;;;25.80;50.40;;;;;;5140348;27;42980;-78
2023/07/07 09:44:51;;;;;;;;;;;25.80;50.90;;;;;;5134699;27;43520;-78
2023/07/07 09:47:28;;;;;;;;;;;25.80;50.40;;;;;;5136391;27;42924;-79
2023/07/07 09:50:03;;;;;;;;;;;25.80;50.50;;;;;;5128510;27;43076;-78
2023/07/07 09:52:32;;;;;;;;;;;25.80;50.40;;;;;;5124368;27;42926;-79
2023/07/07 09:54:58;;;;;;;;;;;25.80;50.40;;;;;;5148624;27;43464;-79
2023/07/07 09:57:24;;;;;;;;;;;25.80;50.40;;;;;;5147269;27;43106;-87
2023/07/07 09:59:50;;;;;;;;;;;25.80;50.40;;;;;;5129461;27;42849;-78
2023/07/07 10:02:17;;;;;;;;;;;25.90;50.40;;;;;;5148168;27;43065;-78
2023/07/07 10:04:45;;;;;;;;;;;25.80;50.30;;;;;;5148856;27;43004;-81
2023/07/07 10:07:14;;;;;;;;;;;25.90;50.50;;;;;;5129070;27;42973;-77
2023/07/07 10:09:39;;;;;;;;;;;25.80;50.30;;;;;;5148150;27;43780;-77
2023/07/07 10:12:05;;;;;;;;;;;25.80;50.30;;;;;;5135271;27;42816;-86
2023/07/07 10:14:31;;;;;;;;;;;25.80;50.50;;;;;;5148647;27;43765;-79
2023/07/07 10:16:59;;;;;;;;;;;25.90;51.10;;;;;;5147333;27;42924;-78
2023/07/07 10:19:25;;;;;;;;;;;25.90;51.10;;;;;;5148245;27;43013;-82
2023/07/07 10:21:51;;;;;;;;;;;25.90;50.80;;;;;;5147694;27;42944;-86
2023/07/07 10:24:16;;;;;;;;;;;25.90;51.30;;;;;;5147105;27;42869;-80
2023/07/07 10:26:45;;;;;;;;;;;25.90;51.40;;;;;;5144218;27;42920;-81
2023/07/07 10:29:12;;;;;;;;;;;26.00;51.40;;;;;;5137831;27;44291;-79
2023/07/07 10:31:46;;;;;;;;;;;25.90;50.90;;;;;;5130370;27;42990;-81
2023/07/07 10:34:23;;;;;;;;;;;25.90;51.30;;;;;;5138964;27;42886;-79
2023/07/07 10:36:51;;;;;;;;;;;25.90;50.90;;;;;;5146818;27;42992;-79
2023/07/07 10:39:17;;;;;;;;;;;26.00;51.50;;;;;;5147736;27;42957;-79
2023/07/07 10:41:43;;;;;;;;;;;25.90;51.50;;;;;;5147029;27;42954;-79
2023/07/07 10:44:08;;;;;;;;;;;25.90;51.50;;;;;;5147797;27;43523;-79
2023/07/07 10:46:34;;;;;;;;;;;25.90;51.00;;;;;;5147166;27;42906;-79
2023/07/07 10:48:59;;;;;;;;;;;25.90;51.10;;;;;;5147939;27;42944;-80
2023/07/07 10:51:25;;;;;;;;;;;;;;;;;;5147790;27;42719;-79
2023/07/07 10:53:53;;;;;;;;;;;26.00;51.20;;;;;;5148072;27;42888;-79
2023/07/07 10:56:28;;;;;;;;;;;26.00;51.70;;;;;;5147718;27;43011;-79
2023/07/07 10:58:53;;;;;;;;;;;26.00;51.60;;;;;;5146981;27;42887;-81
2023/07/07 11:01:19;;;;;;;;;;;26.00;51.10;;;;;;5147934;27;42950;-79
2023/07/07 11:03:53;;;;;;;;;;;26.00;51.70;;;;;;5127419;27;44416;-79
2023/07/07 11:06:19;;;;;;;;;;;26.00;51.20;;;;;;5147942;27;43001;-80
2023/07/07 11:08:53;;;;;;;;;;;26.00;51.30;;;;;;5128149;27;44258;-80
2023/07/07 11:11:25;;;;;;;;;;;26.00;51.50;;;;;;5147944;27;42979;-80
2023/07/07 11:13:54;;;;;;;;;;;26.00;51.50;;;;;;5146846;27;43175;-85
2023/07/07 11:16:22;;;;;;;;;;;26.00;51.60;;;;;;5147362;27;42991;-80
2023/07/07 11:18:58;;;;;;;;;;;26.00;51.60;;;;;;5145985;27;43027;-80
2023/07/07 11:21:33;;;;;;;;;;;26.00;52.10;;;;;;5147120;27;42846;-79
2023/07/07 11:24:10;;;;;;;;;;;26.00;51.60;;;;;;5134308;27;43505;-86
2023/07/07 11:26:43;;;;;;;;;;;26.00;52.00;;;;;;5145865;27;42929;-83
2023/07/07 11:29:14;;;;;;;;;;;26.00;51.60;;;;;;5147701;27;43198;-78
2023/07/07 11:31:45;;;;;;;;;;;26.00;52.10;;;;;;5145741;27;43006;-80
2023/07/07 11:34:23;;;;;;;;;;;26.00;52.00;;;;;;5146279;27;42969;-79
2023/07/07 11:36:55;;;;;;;;;;;26.00;52.00;;;;;;5144266;27;43043;-79
2023/07/07 11:39:26;;;;;;;;;;;26.00;51.50;;;;;;5144660;27;43352;-79
2023/07/07 11:42:10;;;;;;;;;;;26.00;52.00;;;;;;5132389;27;42978;-79
2023/07/07 11:44:36;;;;;;;;;;;26.00;52.10;;;;;;5144667;27;42916;-79
2023/07/07 11:47:19;;;;;;;;;;;26.00;52.10;;;;;;5125955;27;42914;-81
2023/07/07 11:50:09;;;;;;;;;;;26.00;51.80;;;;;;5145933;27;43038;-79
2023/07/07 11:52:49;;;;;;;;;;;26.00;51.60;;;;;;5146518;27;43061;-79
2023/07/07 11:55:29;;;;;;;;;;;26.00;52.10;;;;;;5145959;27;43447;-80
2023/07/07 11:58:04;;;;;;;;;;;26.00;52.00;;;;;;5126148;27;43177;-78
2023/07/07 12:00:48;;;;;;;;;;;26.00;52.00;;;;;;5146141;27;43063;-80
2023/07/07 12:03:14;;;;;;;;;;;26.10;51.50;;;;;;5146138;27;42910;-79
2023/07/07 12:05:40;;;;;;;;;;;26.00;51.80;;;;;;5144492;27;42871;-79
2023/07/07 12:08:11;;;;;;;;;;;26.10;51.30;;;;;;5146345;27;42946;-78
2023/07/07 12:10:45;;;;;;;;;;;26.00;51.10;;;;;;5143845;27;42764;-79
2023/07/07 12:13:40;;;;;;;;;;;26.00;50.90;;;;;;5146593;27;43037;-78
2023/07/07 12:16:22;;;;;;;;;;;26.00;50.70;;;;;;5131940;27;42961;-79
2023/07/07 12:18:51;;;;;;;;;;;26.10;50.80;;;;;;5145216;27;42977;-78
2023/07/07 12:21:20;;;;;;;;;;;26.00;50.80;;;;;;5145372;27;44004;-80
2023/07/07 12:23:51;;;;;;;;;;;26.00;51.20;;;;;;5144178;27;43083;-78
2023/07/07 12:26:23;;;;;;;;;;;26.00;51.20;;;;;;5144583;27;43019;-80
2023/07/07 12:28:54;;;;;;;;;;;26.10;51.20;;;;;;5132889;27;42891;-78
2023/07/07 12:31:20;;;;;;;;;;;26.00;50.70;;;;;;5144259;27;43924;-79
2023/07/07 12:33:51;;;;;;;;;;;26.10;51.10;;;;;;5146527;27;42964;-79
2023/07/07 12:36:16;;;;;;;;;;;26.00;50.60;;;;;;5145213;27;44382;-82
2023/07/07 12:38:47;;;;;;;;;;;26.00;51.00;;;;;;5126700;27;43029;-78
2023/07/07 12:41:14;;;;;;;;;;;26.10;51.10;;;;;;5144903;27;42979;-78
2023/07/07 12:43:43;;;;;;;;;;;26.10;50.60;;;;;;5145366;27;43018;-78
2023/07/07 12:46:28;;;;;;;;;;;26.10;50.50;;;;;;5143952;27;43315;-78
2023/07/07 12:48:56;;;;;;;;;;;26.10;50.50;;;;;;5128251;27;43165;-79
2023/07/07 12:51:22;;;;;;;;;;;26.00;50.40;;;;;;5149348;27;43734;-81
2023/07/07 12:53:49;;;;;;;;;;;26.10;51.00;;;;;;5149559;27;42903;-84
2023/07/07 12:56:17;;;;;;;;;;;26.00;50.90;;;;;;5148950;27;43017;-78
2023/07/07 12:58:44;;;;;;;;;;;26.10;50.50;;;;;;5149538;27;43033;-80
2023/07/07 13:01:15;;;;;;;;;;;26.10;50.60;;;;;;5148976;27;42864;-78
2023/07/07 13:03:41;;;;;;;;;;;26.00;50.40;;;;;;5149175;27;42766;-79
2023/07/07 13:06:21;;;;;;;;;;;26.10;50.90;;;;;;5149507;27;42872;-79
2023/07/07 13:08:47;;;;;;;;;;;26.10;50.90;;;;;;5148616;27;42879;-79
2023/07/07 13:11:26;;;;;;;;;;;26.10;50.80;;;;;;5148699;27;43447;-88
2023/07/07 13:13:52;;;;;;;;;;;26.10;50.30;;;;;;5147685;27;42982;-79
2023/07/07 13:16:18;;;;;;;;;;;26.10;50.70;;;;;;5148272;27;42928;-79
2023/07/07 13:18:43;;;;;;;;;;;26.10;50.70;;;;;;5148021;27;42917;-81
2023/07/07 13:21:11;;;;;;;;;;;26.20;50.30;;;;;;5148757;27;43696;-79
2023/07/07 13:23:42;;;;;;;;;;;26.10;50.70;;;;;;5148685;27;42929;-79
2023/07/07 13:26:24;;;;;;;;;;;26.10;50.30;;;;;;5148606;27;42864;-80
2023/07/07 13:28:50;;;;;;;;;;;26.10;50.40;;;;;;5148475;27;42919;-87
2023/07/07 13:31:16;;;;;;;;;;;26.10;51.00;;;;;;5148170;27;42994;-88
2023/07/07 13:33:41;;;;;;;;;;;26.20;50.50;;;;;;5148248;27;42896;-86
2023/07/07 13:36:08;;;;;;;;;;;26.20;50.50;;;;;;5147681;27;43053;-78
2023/07/07 13:38:36;;;;;;;;;;;26.10;50.50;;;;;;5147604;27;43007;-78
2023/07/07 13:41:05;;;;;;;;;;;26.10;51.00;;;;;;5146180;27;42997;-78
2023/07/07 13:43:39;;;;;;;;;;;26.10;50.50;;;;;;5147616;27;42876;-79
2023/07/07 13:46:14;;;;;;;;;;;26.10;50.10;;;;;;5128616;27;44360;-88
2023/07/07 13:48:42;;;;;;;;;;;26.10;50.20;;;;;;5147984;27;42854;-87
2023/07/07 13:51:15;;;;;;;;;;;26.20;50.70;;;;;;5129215;27;44486;-89
2023/07/07 13:53:40;;;;;;;;;;;26.20;50.70;;;;;;5148773;27;43076;-86
2023/07/07 13:56:06;;;;;;;;;;;26.20;50.40;;;;;;5143979;27;43867;-85
2023/07/07 13:58:32;;;;;;;;;;;26.20;50.40;;;;;;5128705;27;43049;-79
2023/07/07 14:00:59;;;;;;;;;;;26.20;50.30;;;;;;5142045;27;43113;-81
2023/07/07 14:03:25;;;;;;;;;;;26.20;50.40;;;;;;5139754;27;43041;-81
2023/07/07 14:05:54;;;;;;;;;;;26.20;50.30;;;;;;5143177;27;42936;-82
2023/07/07 14:08:21;;;;;;;;;;;26.20;50.90;;;;;;5140147;27;42987;-79
2023/07/07 14:10:51;;;;;;;;;;;26.20;50.50;;;;;;5147502;27;42997;-82
2023/07/07 14:13:35;;;;;;;;;;;26.20;50.60;;;;;;5135932;27;42909;-82
2023/07/07 14:16:00;;;;;;;;;;;26.20;51.00;;;;;;5128820;27;43397;-79
2023/07/07 14:18:28;;;;;;;;;;;26.10;50.70;;;;;;5129159;27;43040;-79
2023/07/07 14:20:54;;;;;;;;;;;26.20;50.80;;;;;;5136979;27;42996;-83
2023/07/07 14:23:20;;;;;;;;;;;26.20;51.20;;;;;;5146126;27;42885;-79
2023/07/07 14:25:47;;;;;;;;;;;26.20;51.20;;;;;;5127271;27;43400;-78